createdAt,value
2022-11-15T00:01:34.118Z,4.65
2022-11-15T00:04:22.932Z,4.93
2022-11-15T00:07:18.024Z,4.94
2022-11-15T00:10:15.501Z,5.24
2022-11-15T00:13:07.456Z,4.95
2022-11-15T00:15:59.144Z,5.31
2022-11-15T00:18:50.600Z,5.55
2022-11-15T00:21:40.604Z,5.32
2022-11-15T00:24:28.701Z,5.44
2022-11-15T00:27:16.792Z,5.16
2022-11-15T00:30:04.269Z,5.26
2022-11-15T00:32:52.970Z,5.48
2022-11-15T00:35:41.093Z,5.03
2022-11-15T00:38:34.971Z,4.85
2022-11-15T00:41:23.522Z,5.15
2022-11-15T00:44:11.767Z,4.84
2022-11-15T00:46:59.575Z,5.24
2022-11-15T00:49:47.505Z,4.91
2022-11-15T00:52:35.697Z,4.98
2022-11-15T00:55:24.242Z,5.15
2022-11-15T00:58:13.051Z,4.91
2022-11-15T01:01:09.067Z,5.32
2022-11-15T01:04:01.081Z,5.12
2022-11-15T01:06:50.119Z,5.24
2022-11-15T01:09:38.863Z,5.57
2022-11-15T01:12:28.008Z,5.51
2022-11-15T01:15:15.832Z,5.35
2022-11-15T01:18:03.985Z,4.95
2022-11-15T01:20:52.320Z,5.07
2022-11-15T01:23:40.099Z,5.29
2022-11-15T01:26:29.120Z,5.11
2022-11-15T01:29:19.162Z,5.14
2022-11-15T01:32:07.088Z,5.45
2022-11-15T01:34:55.027Z,5.42
2022-11-15T01:37:43.072Z,5.67
2022-11-15T01:40:30.807Z,5.26
2022-11-15T01:43:24.220Z,5.49
2022-11-15T01:46:25.429Z,5.38
2022-11-15T01:49:17.884Z,5.27
2022-11-15T01:52:10.493Z,5.14
2022-11-15T01:55:04.392Z,5.04
2022-11-15T01:57:56.611Z,4.41
2022-11-15T02:00:44.513Z,4.91
2022-11-15T02:03:44.692Z,4.82
2022-11-15T02:06:33.294Z,4.49
2022-11-15T02:09:22.240Z,5.07
2022-11-15T02:12:12.220Z,5.20
2022-11-15T02:15:04.221Z,5.09
2022-11-15T02:18:05.933Z,5.24
2022-11-15T02:21:14.513Z,5.22
2022-11-15T02:24:43.811Z,5.15
2022-11-15T02:28:07.952Z,5.52
2022-11-15T02:31:00.207Z,5.24
2022-11-15T02:33:57.363Z,5.15
2022-11-15T02:36:54.437Z,5.07
2022-11-15T02:39:49.543Z,5.16
2022-11-15T02:43:06.970Z,5.32
2022-11-15T02:46:05.536Z,5.40
2022-11-15T02:48:53.996Z,5.09
2022-11-15T02:51:43.359Z,5.07
2022-11-15T02:54:34.970Z,5.38
2022-11-15T02:57:34.848Z,4.71
2022-11-15T03:00:27.802Z,5.35
2022-11-15T03:03:35.723Z,5.21
2022-11-15T03:06:31.720Z,5.11
2022-11-15T03:09:29.448Z,5.40
2022-11-15T03:12:23.684Z,4.98
2022-11-15T03:15:18.434Z,4.90
2022-11-15T03:18:10.972Z,5.42
2022-11-15T03:21:03.135Z,5.17
2022-11-15T03:23:52.952Z,5.26
2022-11-15T03:26:43.768Z,5.44
2022-11-15T03:29:39.009Z,5.28
2022-11-15T03:32:30.632Z,4.83
2022-11-15T03:35:23.596Z,5.03
2022-11-15T03:38:19.567Z,5.41
2022-11-15T03:41:17.436Z,5.09
2022-11-15T03:44:16.797Z,4.83
2022-11-15T03:47:10.829Z,4.27
2022-11-15T03:50:03.748Z,4.38
2022-11-15T03:52:52.696Z,4.33
2022-11-15T03:55:42.984Z,3.57
2022-11-15T03:58:31.382Z,4.67
2022-11-15T04:01:19.677Z,4.81
2022-11-15T04:04:08.920Z,4.74
2022-11-15T04:06:57.922Z,4.83
2022-11-15T04:10:06.166Z,4.94
2022-11-15T04:12:55.393Z,4.90
2022-11-15T04:15:43.852Z,4.70
2022-11-15T04:18:32.318Z,4.50
2022-11-15T04:21:38.126Z,4.18
2022-11-15T04:24:26.256Z,4.07
2022-11-15T04:27:14.924Z,4.63
2022-11-15T04:30:08.544Z,4.75
2022-11-15T04:32:57.671Z,5.03
2022-11-15T04:36:07.066Z,4.79
2022-11-15T04:38:55.217Z,4.57
2022-11-15T04:41:44.109Z,4.83
2022-11-15T04:44:35.055Z,4.82
2022-11-15T04:47:24.327Z,4.56
2022-11-15T04:50:13.805Z,4.86
2022-11-15T04:53:03.071Z,4.89
2022-11-15T04:55:51.852Z,4.61
2022-11-15T04:58:39.715Z,4.26
2022-11-15T05:01:28.206Z,4.32
2022-11-15T05:04:24.611Z,4.46
2022-11-15T05:07:13.408Z,4.44
2022-11-15T05:10:02.078Z,4.62
2022-11-15T05:12:52.925Z,4.59
2022-11-15T05:15:46.593Z,2.60
2022-11-15T05:18:41.871Z,3.92
2022-11-15T05:21:31.648Z,4.25
2022-11-15T05:24:20.024Z,3.70
2022-11-15T05:27:11.357Z,4.71
2022-11-15T05:29:59.173Z,4.55
2022-11-15T05:32:50.148Z,4.59
2022-11-15T05:35:51.716Z,4.64
2022-11-15T05:38:43.270Z,2.73
2022-11-15T05:41:54.242Z,4.44
2022-11-15T05:44:48.262Z,3.52
2022-11-15T05:47:41.693Z,4.34
2022-11-15T05:50:30.426Z,4.39
2022-11-15T05:53:22.315Z,4.59
2022-11-15T05:56:13.585Z,4.66
2022-11-15T05:59:08.733Z,4.20
2022-11-15T06:01:59.442Z,4.03
2022-11-15T06:04:47.938Z,4.20
2022-11-15T06:07:37.860Z,4.25
2022-11-15T06:10:26.501Z,4.15
2022-11-15T06:13:16.512Z,4.38
2022-11-15T06:16:07.595Z,3.50
2022-11-15T06:18:58.819Z,4.18
2022-11-15T06:21:47.383Z,4.71
2022-11-15T06:24:45.221Z,4.34
2022-11-15T06:27:36.689Z,4.69
2022-11-15T06:30:30.213Z,3.85
2022-11-15T06:36:24.006Z,3.26
2022-11-15T06:39:13.332Z,4.42
2022-11-15T06:42:04.747Z,5.00
2022-11-15T06:45:00.028Z,4.03
2022-11-15T06:47:54.846Z,3.04
2022-11-15T06:50:43.532Z,4.67
2022-11-15T06:53:34.193Z,3.85
2022-11-15T06:56:22.416Z,3.10
2022-11-15T06:59:12.203Z,3.14
2022-11-15T07:02:01.436Z,4.97
2022-11-15T07:04:53.991Z,4.60
2022-11-15T07:07:42.067Z,4.57
2022-11-15T07:10:30.389Z,4.77
2022-11-15T07:13:18.645Z,4.82
2022-11-15T07:16:08.634Z,4.20
2022-11-15T07:18:58.482Z,4.62
2022-11-15T07:21:50.319Z,4.51
2022-11-15T07:24:40.142Z,4.85
2022-11-15T07:27:33.810Z,4.14
2022-11-15T07:30:24.860Z,4.28
2022-11-15T07:33:15.767Z,4.87
2022-11-15T07:36:04.797Z,5.32
2022-11-15T07:38:59.598Z,5.43
2022-11-15T07:42:16.609Z,2.96
2022-11-15T07:45:08.237Z,2.79
2022-11-15T07:47:58.947Z,4.51
2022-11-15T07:50:51.169Z,4.05
2022-11-15T07:53:45.217Z,3.38
2022-11-15T07:56:43.036Z,4.76
2022-11-15T07:59:33.306Z,5.12
2022-11-15T08:02:25.345Z,5.09
2022-11-15T08:05:21.091Z,4.24
2022-11-15T08:08:10.472Z,3.88
2022-11-15T08:11:00.857Z,4.56
2022-11-15T08:13:51.011Z,4.32
2022-11-15T08:16:40.039Z,4.65
2022-11-15T08:19:28.419Z,4.95
2022-11-15T08:22:18.849Z,4.88
2022-11-15T08:25:07.874Z,4.67
2022-11-15T08:28:06.769Z,4.92
2022-11-15T08:30:56.829Z,3.71
2022-11-15T08:33:45.683Z,4.19
2022-11-15T08:36:44.602Z,4.89
2022-11-15T08:39:36.059Z,3.09
2022-11-15T08:42:26.569Z,2.60
2022-11-15T08:45:18.941Z,4.76
2022-11-15T08:48:09.186Z,4.64
2022-11-15T08:50:59.723Z,4.94
2022-11-15T08:53:49.403Z,4.71
2022-11-15T08:56:41.036Z,4.24
2022-11-15T08:59:32.172Z,4.33
2022-11-15T09:02:21.309Z,3.67
2022-11-15T09:05:11.905Z,3.95
2022-11-15T09:08:00.095Z,4.51
2022-11-15T09:10:51.023Z,4.22
2022-11-15T09:13:40.998Z,3.69
2022-11-15T09:16:29.726Z,3.63
2022-11-15T09:19:39.152Z,4.02
2022-11-15T09:22:32.312Z,4.34
2022-11-15T09:25:20.694Z,3.47
2022-11-15T09:28:10.068Z,4.79
2022-11-15T09:31:03.755Z,5.09
2022-11-15T09:33:55.550Z,4.77
2022-11-15T09:36:44.429Z,5.52
2022-11-15T09:39:34.832Z,4.46
2022-11-15T09:42:50.326Z,4.95
2022-11-15T09:45:50.407Z,4.60
2022-11-15T09:48:56.680Z,5.38
2022-11-15T09:51:55.089Z,4.73
2022-11-15T09:57:28.908Z,2.96
2022-11-15T10:00:45.310Z,5.12
2022-11-15T10:03:17.963Z,5.12
2022-11-15T10:05:49.616Z,4.93
2022-11-15T10:08:44.054Z,5.33
2022-11-15T10:14:15.512Z,4.96
2022-11-15T10:17:18.979Z,5.18
2022-11-15T10:20:05.965Z,5.83
2022-11-15T10:22:41.880Z,5.07
2022-11-15T10:25:23.199Z,5.35
2022-11-15T10:28:17.267Z,4.82
2022-11-15T10:30:53.395Z,5.26
2022-11-15T10:33:36.301Z,5.97
2022-11-15T10:36:21.313Z,5.83
2022-11-15T10:39:00.480Z,4.80
2022-11-15T10:41:37.058Z,4.91
2022-11-15T10:44:20.549Z,5.83
2022-11-15T10:47:07.759Z,4.76
2022-11-15T10:49:37.651Z,5.82
2022-11-15T10:52:20.334Z,5.90
2022-11-15T10:54:54.288Z,5.59
2022-11-15T10:57:26.111Z,6.28
2022-11-15T10:59:58.887Z,6.19
2022-11-15T11:02:34.173Z,5.68
2022-11-15T11:05:07.229Z,5.64
2022-11-15T11:07:37.979Z,4.33
2022-11-15T11:10:51.028Z,4.60
2022-11-15T11:13:24.305Z,6.51
2022-11-15T11:16:16.969Z,6.50
2022-11-15T11:18:54.219Z,5.90
2022-11-15T11:21:39.758Z,5.96
2022-11-15T11:24:17.379Z,6.27
2022-11-15T11:26:57.183Z,6.68
2022-11-15T11:29:42.547Z,6.09
2022-11-15T11:32:30.355Z,6.33
2022-11-15T11:35:11.726Z,6.49
2022-11-15T11:37:48.026Z,6.54
2022-11-15T11:40:30.447Z,6.29
2022-11-15T11:43:09.242Z,6.40
2022-11-15T11:46:02.073Z,5.85
2022-11-15T11:48:43.852Z,6.25
2022-11-15T11:51:22.886Z,6.25
2022-11-15T11:53:57.716Z,6.12
2022-11-15T11:56:30.746Z,6.67
2022-11-15T11:59:08.702Z,6.93
2022-11-15T12:01:43.985Z,6.16
2022-11-15T12:04:20.441Z,6.17
2022-11-15T12:06:56.230Z,5.93
2022-11-15T12:09:33.394Z,6.66
2022-11-15T12:12:11.052Z,6.20
2022-11-15T12:14:48.040Z,6.77
2022-11-15T12:17:22.401Z,6.26
2022-11-15T12:19:51.955Z,6.33
2022-11-15T12:22:26.488Z,5.96
2022-11-15T12:25:03.052Z,6.53
2022-11-15T12:27:39.629Z,6.60
2022-11-15T12:30:14.575Z,6.11
2022-11-15T12:32:53.885Z,6.74
2022-11-15T12:35:29.768Z,6.91
2022-11-15T12:38:00.829Z,6.99
2022-11-15T12:40:36.832Z,7.13
2022-11-15T12:43:35.674Z,7.01
2022-11-15T12:46:07.810Z,6.78
2022-11-15T12:48:58.855Z,6.78
2022-11-15T12:52:08.154Z,6.93
2022-11-15T12:55:25.701Z,6.66
2022-11-15T12:57:55.136Z,6.32
2022-11-15T13:00:48.492Z,6.71
2022-11-15T13:03:31.597Z,6.66
2022-11-15T13:06:33.555Z,5.86
2022-11-15T13:09:04.616Z,5.86
2022-11-15T13:11:55.326Z,6.52
2022-11-15T13:14:47.632Z,6.94
2022-11-15T13:17:41.314Z,6.90
2022-11-15T13:20:28.124Z,6.13
2022-11-15T13:23:07.689Z,7.05
2022-11-15T13:26:05.232Z,6.71
2022-11-15T13:28:40.061Z,5.53
2022-11-15T13:31:40.400Z,6.12
2022-11-15T13:34:53.433Z,6.42
2022-11-15T13:37:32.312Z,5.74
2022-11-15T13:40:22.224Z,5.26
2022-11-15T13:42:52.943Z,7.09
2022-11-15T13:45:40.263Z,6.33
2022-11-15T13:48:23.090Z,6.34
2022-11-15T13:50:54.604Z,5.15
2022-11-15T13:53:30.740Z,6.36
2022-11-15T13:56:05.065Z,4.69
2022-11-15T13:58:37.898Z,6.85
2022-11-15T14:01:20.372Z,5.52
2022-11-15T14:03:54.824Z,6.62
2022-11-15T14:06:29.705Z,5.75
2022-11-15T14:09:19.675Z,5.85
2022-11-15T14:11:55.425Z,6.52
2022-11-15T14:14:32.577Z,6.93
2022-11-15T14:17:37.109Z,4.52
2022-11-15T14:20:22.695Z,6.47
2022-11-15T14:22:56.941Z,6.02
2022-11-15T14:25:29.155Z,4.98
2022-11-15T14:28:38.559Z,6.44
2022-11-15T14:31:18.063Z,6.06
2022-11-15T14:33:50.808Z,5.82
2022-11-15T14:36:23.357Z,5.39
2022-11-15T14:52:58.114Z,6.71
2022-11-15T14:55:29.634Z,6.92
2022-11-15T14:57:58.727Z,6.94
2022-11-15T15:00:33.849Z,7.07
2022-11-15T15:03:05.360Z,7.07
2022-11-15T15:05:37.658Z,6.77
2022-11-15T15:08:09.074Z,6.72
2022-11-15T15:10:41.625Z,6.72
2022-11-15T15:13:19.393Z,6.70
2022-11-15T15:15:49.080Z,7.02
2022-11-15T15:18:18.528Z,6.70
2022-11-15T15:20:57.786Z,6.76
2022-11-15T15:23:30.400Z,6.47
2022-11-15T15:25:59.664Z,7.14
2022-11-15T15:28:34.207Z,6.86
2022-11-15T15:31:04.761Z,6.70
2022-11-15T15:33:34.611Z,6.81
2022-11-15T15:36:04.779Z,6.24
2022-11-15T15:38:35.666Z,6.70
2022-11-15T15:41:05.534Z,6.81
2022-11-15T15:43:35.086Z,7.00
2022-11-15T15:46:04.298Z,6.75
2022-11-15T15:48:34.979Z,6.81
2022-11-15T15:51:13.011Z,7.06
2022-11-15T15:53:46.519Z,6.80
2022-11-15T15:56:16.181Z,6.77
2022-11-15T15:58:46.593Z,6.85
2022-11-15T16:01:16.490Z,6.79
2022-11-15T16:03:45.970Z,6.77
2022-11-15T16:06:36.409Z,6.70
2022-11-15T16:09:15.287Z,6.66
2022-11-15T16:11:46.903Z,7.07
2022-11-15T16:14:16.453Z,6.74
2022-11-15T16:16:45.708Z,6.93
2022-11-15T16:19:14.773Z,7.09
2022-11-15T16:21:43.947Z,6.89
2022-11-15T16:24:14.951Z,7.06
2022-11-15T16:26:44.275Z,7.12
2022-11-15T16:29:13.604Z,6.63
2022-11-15T16:31:43.412Z,6.84
2022-11-15T16:34:13.729Z,6.87
2022-11-15T16:36:42.913Z,6.94
2022-11-15T16:39:18.150Z,6.85
2022-11-15T16:41:48.004Z,7.01
2022-11-15T16:44:17.733Z,7.24
2022-11-15T16:46:52.897Z,7.12
2022-11-15T16:49:26.620Z,7.31
2022-11-15T16:51:56.987Z,7.07
2022-11-15T16:54:27.200Z,7.15
2022-11-15T16:56:56.488Z,6.87
2022-11-15T16:59:26.594Z,7.39
2022-11-15T17:01:55.720Z,7.12
2022-11-15T17:04:33.245Z,6.89
2022-11-15T17:07:03.413Z,6.83
2022-11-15T17:09:34.701Z,6.66
2022-11-15T17:12:04.396Z,7.45
2022-11-15T17:14:33.550Z,7.49
2022-11-15T17:17:03.234Z,7.54
2022-11-15T17:19:32.674Z,7.07
2022-11-15T17:22:02.111Z,7.32
2022-11-15T17:24:33.120Z,7.29
2022-11-15T17:27:02.426Z,7.20
2022-11-15T17:29:31.621Z,7.09
2022-11-15T17:32:00.638Z,7.24
2022-11-15T17:34:30.418Z,7.13
2022-11-15T17:36:59.772Z,7.23
2022-11-15T17:39:29.258Z,7.46
2022-11-15T17:41:59.700Z,7.44
2022-11-15T17:44:29.267Z,7.56
2022-11-15T17:46:58.592Z,7.63
2022-11-15T17:49:28.059Z,7.27
2022-11-15T17:51:57.737Z,7.66
2022-11-15T17:54:26.767Z,7.54
2022-11-15T17:56:56.665Z,6.94
2022-11-15T17:59:27.752Z,7.06
2022-11-15T18:01:59.475Z,7.12
2022-11-15T18:04:29.337Z,7.04
2022-11-15T18:06:59.573Z,6.80
2022-11-15T18:09:28.943Z,7.16
2022-11-15T18:11:59.498Z,7.28
2022-11-15T18:14:31.716Z,7.34
2022-11-15T18:17:01.122Z,6.92
2022-11-15T18:19:30.748Z,7.32
2022-11-15T18:22:01.731Z,7.08
2022-11-15T18:24:32.658Z,7.30
2022-11-15T18:27:03.457Z,7.45
2022-11-15T18:29:34.686Z,7.39
2022-11-15T18:32:06.543Z,6.83
2022-11-15T18:34:36.039Z,7.38
2022-11-15T18:37:06.067Z,7.37
2022-11-15T18:39:35.285Z,7.30
2022-11-15T18:42:06.361Z,7.14
2022-11-15T18:44:36.999Z,7.13
2022-11-15T18:47:07.948Z,7.21
2022-11-15T18:49:39.541Z,7.31
2022-11-15T18:52:09.641Z,7.32
2022-11-15T18:54:40.316Z,6.95
2022-11-15T18:57:09.930Z,7.32
2022-11-15T18:59:40.979Z,6.90
2022-11-15T19:02:13.015Z,7.50
2022-11-15T19:04:42.895Z,7.49
2022-11-15T19:07:12.486Z,7.31
2022-11-15T19:09:41.843Z,7.25
2022-11-15T19:12:11.267Z,7.66
2022-11-15T19:14:42.296Z,7.32
2022-11-15T19:17:11.227Z,7.26
2022-11-15T19:19:40.704Z,7.22
2022-11-15T19:22:10.452Z,7.29
2022-11-15T19:24:40.291Z,7.32
2022-11-15T19:27:11.564Z,7.26
2022-11-15T19:29:42.782Z,7.24
2022-11-15T19:32:12.884Z,7.14
2022-11-15T19:34:43.364Z,7.40
2022-11-15T19:37:13.152Z,7.15
2022-11-15T19:39:42.859Z,7.21
2022-11-15T19:42:12.623Z,7.27
2022-11-15T19:44:43.177Z,7.28
2022-11-15T19:47:13.018Z,7.14
2022-11-15T19:49:42.087Z,7.08
2022-11-15T19:52:12.359Z,7.16
2022-11-15T19:54:42.066Z,7.36
2022-11-15T19:57:11.756Z,7.28
2022-11-15T19:59:42.716Z,7.38
2022-11-15T20:02:13.396Z,7.20
2022-11-15T20:04:43.469Z,7.10
2022-11-15T20:07:13.093Z,7.40
2022-11-15T20:09:42.779Z,7.00
2022-11-15T20:12:12.252Z,7.26
2022-11-15T20:14:47.285Z,7.46
2022-11-15T20:17:17.702Z,7.64
2022-11-15T20:19:47.244Z,7.25
2022-11-15T20:22:16.287Z,7.31
2022-11-15T20:24:46.203Z,7.18
2022-11-15T20:27:15.707Z,7.42
2022-11-15T20:29:46.646Z,7.54
2022-11-15T20:32:15.947Z,7.34
2022-11-15T20:34:47.946Z,7.21
2022-11-15T20:37:21.148Z,7.11
2022-11-15T20:39:50.205Z,6.99
2022-11-15T20:42:20.396Z,7.20
2022-11-15T20:44:50.850Z,7.15
2022-11-15T20:47:20.993Z,7.00
2022-11-15T20:49:50.550Z,7.00
2022-11-15T20:52:19.669Z,7.08
2022-11-15T20:54:49.519Z,7.15
2022-11-15T20:57:18.894Z,7.40
2022-11-15T20:59:50.808Z,7.29
2022-11-15T21:02:21.138Z,7.03
2022-11-15T21:04:50.790Z,7.13
2022-11-15T21:07:20.198Z,6.88
2022-11-15T21:10:07.813Z,7.11
2022-11-15T21:12:38.010Z,7.28
2022-11-15T21:15:09.429Z,7.14
2022-11-15T21:17:38.974Z,7.12
2022-11-15T21:20:09.068Z,7.16
2022-11-15T21:22:39.786Z,7.21
2022-11-15T21:25:09.666Z,7.17
2022-11-15T21:27:38.756Z,7.07
2022-11-15T21:30:10.651Z,7.07
2022-11-15T21:32:40.897Z,7.10
2022-11-15T21:35:10.905Z,7.14
2022-11-15T21:37:40.231Z,7.19
2022-11-15T21:40:11.527Z,7.18
2022-11-15T21:42:41.180Z,6.65
2022-11-15T21:45:12.658Z,7.15
2022-11-15T21:47:46.111Z,7.38
2022-11-15T21:50:15.971Z,7.07
2022-11-15T21:52:47.051Z,7.22
2022-11-15T21:55:16.148Z,7.28
2022-11-15T21:57:45.459Z,7.40
2022-11-15T22:00:35.689Z,7.28
2022-11-15T22:03:05.546Z,7.23
2022-11-15T22:05:35.916Z,7.48
2022-11-15T22:08:05.380Z,7.27
2022-11-15T22:10:34.623Z,7.28
2022-11-15T22:13:03.735Z,7.40
2022-11-15T22:15:34.160Z,7.43
2022-11-15T22:18:03.586Z,7.26
2022-11-15T22:20:48.513Z,7.31
2022-11-15T22:23:17.698Z,7.32
2022-11-15T22:25:47.257Z,7.29
2022-11-15T22:28:16.256Z,7.37
2022-11-15T22:30:48.306Z,7.72
2022-11-15T22:33:19.178Z,7.31
2022-11-15T22:35:49.034Z,7.56
2022-11-15T22:38:18.347Z,7.34
2022-11-15T22:40:48.040Z,7.37
2022-11-15T22:43:20.276Z,7.19
2022-11-15T22:45:53.638Z,6.98
2022-11-15T22:48:25.713Z,7.46
2022-11-15T22:50:56.568Z,7.37
2022-11-15T22:53:28.183Z,7.49
2022-11-15T22:56:00.225Z,7.04
2022-11-15T22:58:32.646Z,7.34
2022-11-15T23:01:06.195Z,7.42
2022-11-15T23:03:35.952Z,7.38
2022-11-15T23:06:07.287Z,7.05
2022-11-15T23:08:37.518Z,7.11
2022-11-15T23:11:25.648Z,7.05
2022-11-15T23:14:18.153Z,7.20
2022-11-15T23:17:21.912Z,7.27
2022-11-15T23:20:07.502Z,7.25
2022-11-15T23:22:54.506Z,7.23
2022-11-15T23:25:23.986Z,6.96
2022-11-15T23:27:53.164Z,7.12
2022-11-15T23:30:40.356Z,7.37
2022-11-15T23:33:44.392Z,7.46
2022-11-15T23:36:56.854Z,7.45
2022-11-15T23:39:41.270Z,7.20
2022-11-15T23:42:27.342Z,7.30
2022-11-15T23:45:29.710Z,7.11
2022-11-15T23:48:54.569Z,7.40
2022-11-15T23:51:26.344Z,7.10
2022-11-15T23:53:55.944Z,7.25
2022-11-15T23:56:25.184Z,6.79
2022-11-15T23:58:54.245Z,7.46
